createdAt,value
2022-09-15T00:00:42.482Z,4.82
2022-09-15T00:05:50.443Z,4.88
2022-09-15T00:10:58.570Z,5.75
2022-09-15T00:16:03.599Z,3.95
2022-09-15T00:21:13.578Z,4.60
2022-09-15T00:26:20.690Z,8.25
2022-09-15T00:31:29.945Z,5.95
2022-09-15T00:36:37.692Z,3.70
2022-09-15T00:41:43.670Z,3.10
2022-09-15T00:47:09.368Z,3.03
2022-09-15T00:52:24.122Z,3.75
2022-09-15T00:57:31.938Z,3.90
2022-09-15T01:02:38.243Z,3.75
2022-09-15T01:07:48.063Z,4.70
2022-09-15T01:12:53.221Z,5.68
2022-09-15T01:18:12.686Z,3.90
2022-09-15T01:23:46.230Z,4.82
2022-09-15T01:29:26.558Z,4.25
2022-09-15T01:34:37.856Z,3.60
2022-09-15T01:39:46.088Z,3.58
2022-09-15T01:44:55.199Z,3.55
2022-09-15T01:50:05.046Z,3.55
2022-09-15T01:55:15.552Z,4.15
2022-09-15T02:00:20.699Z,3.42
2022-09-15T02:05:32.185Z,3.65
2022-09-15T02:10:41.331Z,4.03
2022-09-15T02:15:51.746Z,4.82
2022-09-15T02:21:03.932Z,3.83
2022-09-15T02:26:12.994Z,4.03
2022-09-15T02:31:19.330Z,3.35
2022-09-15T02:36:29.717Z,5.00
2022-09-15T02:41:35.522Z,3.80
2022-09-15T02:46:42.210Z,2.63
2022-09-15T02:51:49.950Z,3.30
2022-09-15T02:56:55.115Z,3.58
2022-09-15T03:02:00.567Z,2.97
2022-09-15T03:07:08.369Z,4.93
2022-09-15T03:12:14.025Z,2.55
2022-09-15T03:17:19.175Z,2.95
2022-09-15T03:22:26.832Z,2.67
2022-09-15T03:27:31.889Z,2.78
2022-09-15T03:32:37.074Z,3.45
2022-09-15T03:37:44.751Z,2.65
2022-09-15T03:42:49.773Z,2.40
2022-09-15T03:47:54.809Z,3.72
2022-09-15T03:53:02.692Z,2.75
2022-09-15T03:58:08.069Z,2.30
2022-09-15T04:03:13.232Z,2.55
2022-09-15T04:08:20.889Z,2.42
2022-09-15T04:13:28.676Z,2.40
2022-09-15T04:18:34.478Z,2.15
2022-09-15T04:23:42.683Z,2.50
2022-09-15T04:28:47.759Z,2.83
2022-09-15T04:33:56.014Z,3.38
2022-09-15T04:39:03.889Z,2.53
2022-09-15T04:44:08.879Z,3.30
2022-09-15T04:49:15.272Z,3.20
2022-09-15T04:54:23.570Z,3.65
2022-09-15T04:59:28.647Z,4.00
2022-09-15T05:04:33.760Z,4.32
2022-09-15T05:09:41.390Z,4.32
2022-09-15T05:14:46.494Z,3.75
2022-09-15T05:19:51.470Z,3.28
2022-09-15T05:24:59.104Z,3.58
2022-09-15T05:30:34.869Z,3.10
2022-09-15T05:35:29.164Z,2.45
2022-09-15T05:40:36.983Z,2.65
2022-09-15T05:45:46.836Z,2.47
2022-09-15T05:50:52.716Z,2.45
2022-09-15T05:56:01.994Z,2.30
2022-09-15T06:01:14.129Z,2.65
2022-09-15T06:06:19.432Z,2.50
2022-09-15T06:11:28.840Z,2.45
2022-09-15T06:16:38.178Z,2.60
2022-09-15T06:21:43.735Z,2.67
2022-09-15T06:26:51.283Z,2.30
2022-09-15T06:31:57.318Z,2.17
2022-09-15T06:37:02.319Z,2.30
2022-09-15T06:42:13.709Z,2.08
2022-09-15T06:47:34.167Z,1.98
2022-09-15T06:52:39.194Z,1.70
2022-09-15T06:57:46.773Z,1.73
2022-09-15T07:02:52.210Z,2.33
2022-09-15T07:07:57.218Z,1.35
2022-09-15T07:13:07.074Z,1.83
2022-09-15T07:18:12.223Z,1.75
2022-09-15T07:23:17.356Z,1.88
2022-09-15T07:28:24.912Z,2.90
2022-09-15T07:33:29.894Z,4.70
2022-09-15T07:38:34.972Z,1.90
2022-09-15T07:43:42.659Z,1.02
2022-09-15T07:48:48.574Z,1.08
2022-09-15T07:53:54.610Z,0.85
2022-09-15T07:59:02.205Z,1.60
2022-09-15T08:04:07.176Z,1.30
2022-09-15T08:09:14.906Z,1.33
2022-09-15T08:14:22.609Z,0.82
2022-09-15T08:19:27.548Z,0.93
2022-09-15T08:24:32.782Z,1.17
2022-09-15T08:29:40.414Z,1.23
2022-09-15T08:34:45.382Z,1.10
2022-09-15T08:39:50.594Z,0.70
2022-09-15T08:45:03.814Z,0.98
2022-09-15T08:50:11.514Z,1.02
2022-09-15T08:55:18.799Z,0.90
2022-09-15T09:00:26.533Z,0.82
2022-09-15T09:05:41.902Z,0.80
2022-09-15T09:10:52.377Z,1.20
2022-09-15T09:16:10.481Z,0.90
2022-09-15T09:21:23.023Z,1.52
2022-09-15T09:26:28.722Z,1.30
2022-09-15T09:31:38.618Z,1.10
2022-09-15T09:36:43.646Z,1.30
2022-09-15T09:41:49.022Z,0.93
2022-09-15T09:46:56.665Z,1.08
2022-09-15T09:52:03.738Z,1.67
2022-09-15T09:57:33.018Z,1.60
2022-09-15T10:02:49.886Z,1.20
2022-09-15T10:07:54.865Z,1.30
2022-09-15T10:13:00.174Z,1.25
2022-09-15T10:18:07.845Z,1.20
2022-09-15T10:23:28.236Z,1.02
2022-09-15T10:28:33.214Z,1.35
2022-09-15T10:33:42.119Z,1.48
2022-09-15T10:38:49.228Z,1.48
2022-09-15T10:44:15.848Z,1.25
2022-09-15T10:49:35.911Z,1.30
2022-09-15T10:54:58.536Z,1.67
2022-09-15T11:00:08.728Z,1.25
2022-09-15T11:05:35.675Z,1.23
2022-09-15T11:10:46.355Z,0.95
2022-09-15T11:16:00.323Z,0.82
2022-09-15T11:21:29.408Z,1.05
2022-09-15T11:26:38.279Z,0.93
2022-09-15T11:31:45.678Z,1.20
2022-09-15T11:36:56.857Z,1.05
2022-09-15T11:42:07.134Z,1.23
2022-09-15T11:47:25.736Z,1.17
2022-09-15T11:52:47.800Z,1.63
2022-09-15T11:57:57.517Z,1.58
2022-09-15T12:03:13.561Z,1.52
2022-09-15T12:08:24.432Z,1.50
2022-09-15T12:13:29.665Z,1.80
2022-09-15T12:18:42.731Z,1.80
2022-09-15T12:23:58.049Z,1.88
2022-09-15T12:29:04.753Z,1.48
2022-09-15T12:34:37.018Z,2.28
2022-09-15T12:39:46.356Z,1.75
2022-09-15T12:44:54.946Z,1.50
2022-09-15T12:50:03.546Z,1.35
2022-09-15T12:55:20.413Z,2.00
2022-09-15T13:01:00.639Z,1.23
2022-09-15T13:06:21.929Z,1.45
2022-09-15T13:11:42.642Z,1.33
2022-09-15T13:16:52.986Z,1.60
2022-09-15T13:22:03.471Z,1.73
2022-09-15T13:27:11.427Z,1.63
2022-09-15T13:38:21.739Z,1.98
2022-09-15T13:43:47.683Z,2.28
2022-09-15T13:49:10.900Z,1.50
2022-09-15T13:54:19.913Z,2.22
2022-09-15T13:59:30.561Z,2.13
2022-09-15T14:04:35.662Z,1.67
2022-09-15T14:09:47.703Z,1.55
2022-09-15T14:14:59.003Z,2.40
2022-09-15T14:20:07.486Z,1.98
2022-09-15T14:25:19.622Z,2.22
2022-09-15T14:30:29.727Z,2.75
2022-09-15T14:35:40.834Z,2.20
2022-09-15T14:40:45.927Z,1.70
2022-09-15T14:45:57.135Z,1.83
2022-09-15T14:51:07.188Z,2.20
2022-09-15T14:56:14.509Z,1.60
2022-09-15T15:01:24.665Z,1.83
2022-09-15T15:06:34.624Z,2.72
2022-09-15T15:11:45.782Z,2.45
2022-09-15T15:17:01.228Z,2.00
2022-09-15T15:22:10.668Z,2.38
2022-09-15T15:27:45.790Z,2.60
2022-09-15T15:32:53.380Z,1.92
2022-09-15T15:38:06.823Z,2.20
2022-09-15T15:43:23.724Z,1.77
2022-09-15T15:48:37.374Z,2.20
2022-09-15T15:53:42.969Z,2.55
2022-09-15T15:58:47.905Z,2.13
2022-09-15T16:03:55.488Z,2.85
2022-09-15T16:09:01.199Z,4.40
2022-09-15T16:14:06.331Z,3.90
2022-09-15T16:19:13.910Z,3.38
2022-09-15T16:24:18.876Z,4.25
2022-09-15T16:29:28.328Z,3.70
2022-09-15T16:34:35.940Z,4.00
2022-09-15T16:39:41.178Z,3.58
2022-09-15T16:44:46.763Z,2.28
2022-09-15T16:49:54.369Z,3.78
2022-09-15T16:54:59.526Z,3.78
2022-09-15T17:00:05.428Z,3.22
2022-09-15T17:05:19.373Z,2.38
2022-09-15T17:10:24.692Z,2.92
2022-09-15T17:15:31.626Z,2.80
2022-09-15T17:20:39.920Z,3.70
2022-09-15T17:25:49.412Z,2.40
2022-09-15T17:30:55.621Z,2.78
2022-09-15T17:36:03.944Z,2.83
2022-09-15T17:41:09.470Z,2.33
2022-09-15T17:46:15.151Z,1.77
2022-09-15T17:51:25.467Z,1.38
2022-09-15T17:56:31.255Z,1.08
2022-09-15T18:01:36.524Z,0.70
2022-09-15T18:06:51.134Z,0.82
2022-09-15T18:11:56.095Z,1.33
2022-09-15T18:17:01.713Z,1.30
2022-09-15T18:22:09.379Z,1.58
2022-09-15T18:27:16.671Z,1.02
2022-09-15T18:32:34.269Z,1.35
2022-09-15T18:38:01.532Z,0.82
2022-09-15T18:43:06.803Z,1.08
2022-09-15T18:48:16.692Z,1.02
2022-09-15T18:53:24.984Z,1.23
2022-09-15T18:58:33.041Z,1.05
2022-09-15T19:03:44.017Z,0.75
2022-09-15T19:08:52.680Z,0.35
2022-09-15T19:13:58.095Z,0.52
2022-09-15T19:19:10.708Z,0.50
2022-09-15T19:24:18.796Z,0.65
2022-09-15T19:29:24.044Z,0.73
2022-09-15T19:34:35.740Z,0.77
2022-09-15T19:39:43.686Z,1.73
2022-09-15T19:44:49.648Z,0.63
2022-09-15T19:49:54.970Z,0.52
2022-09-15T19:55:02.950Z,0.73
2022-09-15T20:00:09.898Z,0.73
2022-09-15T20:05:15.331Z,0.90
2022-09-15T20:10:23.181Z,0.70
2022-09-15T20:15:28.283Z,0.73
2022-09-15T20:20:33.763Z,0.52
2022-09-15T20:25:41.478Z,0.88
2022-09-15T20:30:46.579Z,1.45
2022-09-15T20:35:58.947Z,0.90
2022-09-15T20:41:13.664Z,0.85
2022-09-15T20:46:38.543Z,1.33
2022-09-15T20:51:43.777Z,1.77
2022-09-15T20:56:51.714Z,1.02
2022-09-15T21:01:56.966Z,0.85
2022-09-15T21:07:02.404Z,1.23
2022-09-15T21:12:14.262Z,0.50
2022-09-15T21:17:19.462Z,0.88
2022-09-15T21:22:24.763Z,0.88
2022-09-15T21:38:54.320Z,0.82
2022-09-15T21:44:00.953Z,0.77
2022-09-15T21:49:06.099Z,1.75
2022-09-15T21:54:14.536Z,0.75
2022-09-15T21:59:22.169Z,0.60
2022-09-15T22:04:34.741Z,1.02
2022-09-15T22:09:42.315Z,0.82
2022-09-15T22:14:47.327Z,1.10
2022-09-15T22:19:52.346Z,1.52
2022-09-15T22:24:59.997Z,0.80
2022-09-15T22:30:05.046Z,2.10
2022-09-15T22:35:11.682Z,0.93
2022-09-15T22:40:20.088Z,1.02
2022-09-15T22:45:25.115Z,0.93
2022-09-15T22:50:30.093Z,1.15
2022-09-15T22:55:37.792Z,0.93
2022-09-15T23:00:42.942Z,0.88
2022-09-15T23:05:48.087Z,0.50
2022-09-15T23:10:55.846Z,0.52
2022-09-15T23:16:01.120Z,0.93
2022-09-15T23:21:08.914Z,0.90
2022-09-15T23:26:16.885Z,0.57
2022-09-15T23:31:22.604Z,0.32
2022-09-15T23:36:27.831Z,0.40
2022-09-15T23:41:36.977Z,0.60
2022-09-15T23:46:42.186Z,0.57
2022-09-15T23:51:47.236Z,0.50
2022-09-15T23:56:54.857Z,0.35
